Impacts TAF Board INFO
FOR SITUATIONAL AWARENESS. NOT TO BE USED FOR FLIGHT PLANNING PURPOSES.
IDs:

KMIA - Miami Intl, FL, US

Issued at 2052 UTC 25 Feb 2018
Updated at 2116 UTC 25 Feb 2018
Potential Impact None Slight Moderate High
Time2053Z 25/22Z 25/23Z 26/00Z 26/01Z 26/02Z 26/03Z 26/04Z 26/05Z 26/06Z 26/07Z 26/08Z 26/09Z 26/10Z>>
Type OBS PRVL PRVL PRVL PRVL PRVL PRVL PRVL PRVL PRVL PRVL PRVL PRVL PRVL
VIS 10 >6 >6 >6 >6 >6 >6 >6 >6 >6 >6 >6 >6 >6
CIG -- -- -- -- -- -- -- -- -- -- -- -- -- --
Cover SCT SCT SCT FEW FEW FEW FEW FEW FEW FEW FEW FEW FEW FEW
FltCat VFR VFR VFR VFR VFR VFR VFR VFR VFR VFR VFR VFR VFR VFR
WX -- -- -- -- -- -- -- -- -- -- -- -- -- --
WDir 120 140 140 VRB VRB VRB VRB VRB VRB VRB VRB VRB VRB VRB
WSpd 10 10 10 3 3 3 3 3 3 3 3 3 3 3
WGst -- -- -- -- -- -- -- -- -- -- -- -- -- --

Raw TAF
KMIA 252052Z 2521/2624 14010KT P6SM SCT035 SCT050
  FM260000 VRB03KT P6SM FEW025
  FM261500 15008KT P6SM SCT030 SCT050


Raw METAR
KMIA 252053Z 12010KT 10SM SCT036 27/20 A3013 RMK AO2 SLP202 T02670200 56010
KMIA 251953Z 13012KT 10SM SCT032 28/19 A3013 RMK AO2 SLP204 T02780189
KMIA 251853Z 13012G17KT 10SM SCT029 28/20 A3014 RMK AO2 SLP207 T02780200

METAR Board
Radar Display
Forecast Discussion

FOR SITUATIONAL AWARENESS. NOT TO BE USED FOR FLIGHT PLANNING PURPOSES.